Terminal Aerodrome Forecast
Issued by NWS Sioux Falls, SD

Home | Current Version | Previous Version | Text Only | Print | Product List | Glossary Off
Versions: 1 2 3 4 5 6 7 8 9 10 11 12 13

423
FTUS43 KFSD 260520
TAFFSD
TAF
KFSD 260520Z 2606/2706 VRB03KT P6SM FEW250
     FM261100 07004KT P6SM FEW250
     FM261500 14009KT P6SM SCT250
     FM270000 12006KT P6SM SCT050 OVC140
     FM270400 12006KT P6SM SHRA BKN035 OVC080=

USA.gov is the U.S. government's official web portal to all federal, state and local government web resources and services.